EDT,Max TemperatureF,Mean TemperatureF,Min TemperatureF,Max Dew PointF,MeanDew PointF,Min DewpointF,Max Humidity, Mean Humidity, Min Humidity, Max Sea Level PressureIn, Mean Sea Level PressureIn, Min Sea Level PressureIn, Max VisibilityMiles, Mean VisibilityMiles, Min VisibilityMiles, Max Wind SpeedMPH, Mean Wind SpeedMPH, Max Gust SpeedMPH,PrecipitationIn, CloudCover, Events, WindDirDegrees
2013-3-1,47,39,31,28,25,21,78,57,40,29.91,29.85,29.81,10,10,10,9,4,16,0.00,5,,289
2013-3-2,42,36,31,28,22,17,78,54,40,29.90,29.87,29.82,10,10,10,9,3,,0.00,7,,311
2013-3-3,44,36,29,19,16,12,59,46,33,29.96,29.90,29.82,10,10,10,15,6,18,0.00,3,,302
2013-3-4,48,36,25,20,11,6,56,38,18,30.08,30.03,29.96,10,10,10,13,6,23,0.00,0,,283
2013-3-5,51,41,31,42,30,15,95,70,28,30.07,29.93,29.60,10,8,2,14,3,22,0.39,7,Rain,140
2013-3-6,41,36,32,36,32,29,97,83,64,30.01,29.71,29.51,10,7,1,23,10,37,0.07,7,Rain-Snow,313
2013-3-7,47,41,35,29,27,23,72,59,43,30.22,30.12,30.00,10,10,10,14,8,21,0.00,3,,311
2013-3-8,53,42,31,26,22,18,73,47,28,30.28,30.20,30.13,10,10,10,17,8,28,0.00,0,,322
2013-3-9,59,46,32,29,24,20,71,45,22,30.34,30.29,30.25,10,10,10,10,4,,0.00,0,,353
2013-3-10,65,49,33,29,20,12,77,33,13,30.32,30.27,30.21,10,10,10,9,3,,0.00,0,,151
2013-3-11,68,54,40,49,42,23,92,61,35,30.24,30.09,29.95,10,10,7,16,7,22,0.00,3,,167
2013-3-12,67,57,47,60,49,31,94,72,43,29.95,29.83,29.76,10,9,2,16,10,24,0.64,5,Rain,243
2013-3-13,54,43,32,32,24,14,92,49,27,30.11,30.01,29.95,10,10,10,16,7,25,0.00,2,,297
2013-3-14,50,40,30,17,14,11,55,37,21,30.22,30.15,30.09,10,10,10,15,7,26,0.00,0,,300
2013-3-15,61,46,31,32,23,14,61,42,29,30.16,30.04,29.89,10,10,10,18,5,25,0.00,0,,229
2013-3-16,74,59,44,54,41,32,78,53,30,29.89,29.77,29.62,10,10,7,20,9,31,0.00,2,Rain,217
2013-3-17,59,48,37,51,40,34,95,81,68,30.20,30.04,29.82,10,8,1,15,8,21,0.01,6,Rain,42
2013-3-18,40,38,35,39,37,34,97,96,95,30.21,30.09,29.86,10,3,1,13,7,17,0.09,8,Rain-Snow,48
2013-3-19,65,51,37,42,28,-2,97,56,12,30.02,29.87,29.81,10,8,1,16,5,25,0.00,3,,277
2013-3-20,54,46,38,22,9,-3,50,23,12,30.09,29.96,29.79,10,10,10,16,6,18,0.00,0,,257
2013-3-21,43,36,29,30,16,6,83,45,24,29.96,29.81,29.73,10,10,3,18,7,26,0.00,4,Snow,308
2013-3-22,49,36,23,22,10,5,62,37,17,30.06,29.99,29.95,10,10,10,13,6,18,0.00,0,,267
2013-3-23,55,42,30,30,22,16,78,46,25,30.05,29.98,29.91,10,10,7,7,2,,0.00,5,,219
2013-3-24,39,36,33,36,33,27,96,87,62,29.92,29.76,29.59,10,7,1,17,5,28,0.93,6,Rain,37
2013-3-25,45,38,32,35,28,20,99,71,40,29.78,29.61,29.55,10,9,2,17,6,29,0.02,7,Rain-Snow,284
2013-3-26,47,39,31,26,24,22,74,53,40,30.08,29.91,29.78,10,10,10,10,6,16,0.00,5,,281
2013-3-27,51,42,33,25,21,16,71,47,28,30.21,30.14,30.08,10,10,10,16,7,24,0.00,2,,296
2013-3-28,54,43,32,25,21,18,72,45,25,30.28,30.20,30.14,10,10,10,14,6,22,0.00,1,,296
2013-3-29,59,44,29,28,23,19,82,44,22,30.31,30.24,30.16,10,10,10,10,4,16,0.00,3,,274
2013-3-30,63,48,34,36,27,22,84,44,21,30.24,30.17,30.09,10,10,10,8,2,,0.00,2,,219
2013-3-31,65,56,46,54,48,37,96,78,57,30.09,29.92,29.80,10,9,2,15,7,22,0.39,6,Rain,191